Time;durP1;ratioP1;P1;durP2;ratioP2;P2;SDS_P1;SDS_P2;PMS_P1;PMS_P2;Temp;Humidity;BMP_temperature;BMP_pressure;BME280_temperature;BME280_humidity;BME280_pressure;Samples;Min_cycle;Max_cycle;Signal;HPM_P1;HPM_P2
2022/07/27 00:01:38;;;;;;;10.95;2.22;;;16.10;99.90;;;;;;5086030;28;20195;-78
2022/07/27 00:04:05;;;;;;;5.03;1.90;;;16.00;99.90;;;;;;5097443;28;20228;-79
2022/07/27 00:06:32;;;;;;;8.82;2.03;;;15.90;99.90;;;;;;5088686;28;20209;-79
2022/07/27 00:08:59;;;;;;;5.78;1.23;;;15.80;99.90;;;;;;5085364;28;20260;-80
2022/07/27 00:11:26;;;;;;;3.88;1.60;;;15.90;99.90;;;;;;5085855;28;20227;-82
2022/07/27 00:13:54;;;;;;;5.25;1.92;;;15.80;99.90;;;;;;5085543;28;20249;-80
2022/07/27 00:16:21;;;;;;;5.28;1.60;;;15.80;99.90;;;;;;5078261;28;20286;-78
2022/07/27 00:18:48;;;;;;;5.35;2.10;;;15.80;99.90;;;;;;5085681;28;20199;-77
2022/07/27 00:21:15;;;;;;;3.78;1.30;;;15.70;99.90;;;;;;5086306;28;20233;-79
2022/07/27 00:23:41;;;;;;;7.22;1.50;;;15.60;99.90;;;;;;5083877;28;20203;-78
2022/07/27 00:26:08;;;;;;;4.32;1.40;;;15.60;99.90;;;;;;5083498;28;20220;-80
2022/07/27 00:28:35;;;;;;;5.60;2.85;;;15.60;99.90;;;;;;5085123;28;20586;-78
2022/07/27 00:31:03;;;;;;;7.93;2.70;;;15.50;99.90;;;;;;5081519;28;20208;-80
2022/07/27 00:33:30;;;;;;;5.03;1.48;;;15.50;99.90;;;;;;5086102;28;20245;-78
2022/07/27 00:35:57;;;;;;;4.65;2.50;;;15.40;99.90;;;;;;5084303;28;20322;-80
2022/07/27 00:38:24;;;;;;;5.03;1.92;;;15.40;99.90;;;;;;5081582;28;20687;-78
2022/07/27 00:40:52;;;;;;;5.53;1.65;;;15.40;99.90;;;;;;5086892;28;20210;-79
2022/07/27 00:43:19;;;;;;;3.00;1.42;;;15.30;99.90;;;;;;5082708;28;20218;-78
2022/07/27 00:45:46;;;;;;;5.03;1.92;;;15.40;99.90;;;;;;5078406;28;20639;-77
2022/07/27 00:48:14;;;;;;;3.20;1.70;;;15.30;99.90;;;;;;5086567;28;20199;-79
2022/07/27 00:50:42;;;;;;;2.78;1.30;;;15.30;99.90;;;;;;5081805;28;20272;-79
2022/07/27 00:53:10;;;;;;;3.00;1.58;;;15.30;99.90;;;;;;5074992;28;20859;-79
2022/07/27 00:55:38;;;;;;;5.45;1.50;;;15.30;99.90;;;;;;5074467;28;20219;-79
2022/07/27 00:58:07;;;;;;;5.93;1.70;;;15.30;99.90;;;;;;5078615;28;20226;-78
2022/07/27 01:00:35;;;;;;;5.85;1.63;;;15.10;99.90;;;;;;5082692;28;20223;-79
2022/07/27 01:03:02;;;;;;;6.10;1.80;;;15.20;99.90;;;;;;5083557;28;20258;-79
2022/07/27 01:05:31;;;;;;;4.95;1.38;;;15.10;99.90;;;;;;5081336;28;20215;-79
2022/07/27 01:07:58;;;;;;;2.42;0.80;;;15.20;99.90;;;;;;5080984;28;20201;-81
2022/07/27 01:10:25;;;;;;;2.40;1.08;;;15.10;99.90;;;;;;5080810;28;20274;-81
2022/07/27 01:12:52;;;;;;;3.22;1.33;;;15.00;99.90;;;;;;5073917;28;20279;-81
2022/07/27 01:15:19;;;;;;;4.82;1.75;;;15.00;99.90;;;;;;5076401;28;20290;-79
2022/07/27 01:17:46;;;;;;;4.95;1.95;;;15.00;99.90;;;;;;5081273;28;20695;-80
2022/07/27 01:20:13;;;;;;;8.45;1.60;;;15.20;99.90;;;;;;5077219;28;20237;-81
2022/07/27 01:22:41;;;;;;;3.15;1.60;;;15.00;99.90;;;;;;5072858;28;20246;-81
2022/07/27 01:25:09;;;;;;;2.88;1.42;;;14.90;99.90;;;;;;5078380;28;20282;-80
2022/07/27 01:27:36;;;;;;;3.47;1.50;;;15.00;99.90;;;;;;5076691;28;20222;-80
2022/07/27 01:30:25;;;;;;;5.40;2.55;;;15.00;99.90;;;;;;5079498;28;20202;-81
2022/07/27 01:32:50;;;;;;;4.82;1.50;;;15.00;99.90;;;;;;5078904;28;20275;-80
2022/07/27 01:35:17;;;;;;;3.92;2.13;;;14.90;99.90;;;;;;5072295;28;20544;-80
2022/07/27 01:37:45;;;;;;;2.75;1.80;;;14.80;99.90;;;;;;5074176;28;20229;-79
2022/07/27 01:40:13;;;;;;;3.28;1.50;;;14.80;99.90;;;;;;5078426;28;20270;-79
2022/07/27 01:42:40;;;;;;;3.28;1.83;;;14.80;99.90;;;;;;5070579;28;20208;-79
2022/07/27 01:45:08;;;;;;;5.03;1.60;;;14.70;99.90;;;;;;5076641;28;20229;-79
2022/07/27 01:47:35;;;;;;;5.22;3.00;;;14.70;99.90;;;;;;5068869;28;20199;-79
2022/07/27 01:50:06;;;;;;;5.88;3.13;;;14.70;99.90;;;;;;5079346;28;20217;-79
2022/07/27 01:52:33;;;;;;;5.45;1.60;;;14.70;99.90;;;;;;5075720;28;20231;-79
2022/07/27 01:55:01;;;;;;;4.28;2.33;;;14.70;99.90;;;;;;5081496;28;20223;-80
2022/07/27 01:57:28;;;;;;;4.15;2.10;;;14.70;99.90;;;;;;5078885;28;20275;-78
2022/07/27 01:59:54;;;;;;;6.22;1.98;;;14.70;99.90;;;;;;5083612;28;20203;-79
2022/07/27 02:02:21;;;;;;;2.17;1.70;;;14.70;99.90;;;;;;5079773;28;20199;-81
2022/07/27 02:04:48;;;;;;;2.63;1.70;;;14.70;99.90;;;;;;5084805;28;20286;-79
2022/07/27 02:07:15;;;;;;;5.13;1.90;;;14.70;99.90;;;;;;5079792;28;20199;-81
2022/07/27 02:09:44;;;;;;;3.85;1.80;;;14.70;99.90;;;;;;5085517;28;20268;-79
2022/07/27 02:14:59;;;;;;;2.13;1.80;;;14.70;99.90;;;;;;5078107;28;20229;-80
2022/07/27 02:17:26;;;;;;;4.97;1.90;;;14.80;99.90;;;;;;5083095;28;20223;-81
2022/07/27 02:19:53;;;;;;;2.28;1.65;;;14.90;99.90;;;;;;5082928;28;20203;-81
2022/07/27 02:22:20;;;;;;;7.10;2.35;;;14.80;99.90;;;;;;5079487;28;20281;-80
2022/07/27 02:24:47;;;;;;;7.85;2.10;;;14.80;99.90;;;;;;5083508;28;20215;-79
2022/07/27 02:27:16;;;;;;;10.85;3.88;;;14.70;99.90;;;;;;5082143;28;20230;-78
2022/07/27 02:29:42;;;;;;;5.20;2.00;;;14.70;99.90;;;;;;5099505;28;20265;-80
2022/07/27 02:32:09;;;;;;;6.72;2.25;;;14.70;99.90;;;;;;5097030;28;20244;-77
2022/07/27 02:34:36;;;;;;;3.30;2.05;;;14.60;99.90;;;;;;5089780;28;20196;-79
2022/07/27 02:37:03;;;;;;;2.70;1.65;;;14.50;99.90;;;;;;5082058;28;20253;-81
2022/07/27 02:39:31;;;;;;;8.13;2.30;;;14.50;99.90;;;;;;5082335;28;20210;-82
2022/07/27 02:41:57;;;;;;;4.00;2.15;;;14.40;99.90;;;;;;5077963;28;20198;-79
2022/07/27 02:44:26;;;;;;;6.07;1.90;;;14.40;99.90;;;;;;5084221;28;20233;-80
2022/07/27 02:46:52;;;;;;;4.85;1.60;;;14.30;99.90;;;;;;5071890;28;20301;-81
2022/07/27 02:49:19;;;;;;;4.22;2.22;;;14.30;99.90;;;;;;5082635;28;20266;-79
2022/07/27 02:51:50;;;;;;;4.72;1.52;;;14.30;99.90;;;;;;5081431;28;20621;-80
2022/07/27 02:54:24;;;;;;;4.35;2.03;;;14.30;99.90;;;;;;5082418;28;20809;-81
2022/07/27 02:56:51;;;;;;;1.90;1.23;;;14.20;99.90;;;;;;5085622;28;20209;-81
2022/07/27 02:59:19;;;;;;;6.90;2.30;;;14.20;99.90;;;;;;5085925;28;20270;-81
2022/07/27 03:01:48;;;;;;;3.83;2.17;;;14.20;99.90;;;;;;5083637;28;20301;-80
2022/07/27 03:04:15;;;;;;;6.40;2.25;;;14.20;99.90;;;;;;5085178;28;20223;-79
2022/07/27 03:06:42;;;;;;;3.25;1.38;;;14.10;99.90;;;;;;5084733;28;20278;-81
2022/07/27 03:09:10;;;;;;;3.92;1.98;;;14.10;99.90;;;;;;5085364;28;20569;-80
2022/07/27 03:11:37;;;;;;;2.65;1.50;;;14.10;99.90;;;;;;5083918;28;20685;-78
2022/07/27 03:14:04;;;;;;;4.45;2.00;;;14.10;99.90;;;;;;5081328;28;20207;-80
2022/07/27 03:16:31;;;;;;;6.85;1.92;;;14.10;99.90;;;;;;5083139;28;20239;-82
2022/07/27 03:18:59;;;;;;;5.60;2.30;;;14.10;99.90;;;;;;5082482;28;20238;-78
2022/07/27 03:21:26;;;;;;;5.05;2.80;;;14.10;99.90;;;;;;5084056;28;20210;-79
2022/07/27 03:23:53;;;;;;;10.32;2.78;;;14.10;99.90;;;;;;5084347;28;20195;-78
2022/07/27 03:26:20;;;;;;;7.32;2.47;;;14.10;99.90;;;;;;5083548;28;20270;-80
2022/07/27 03:28:47;;;;;;;3.70;1.77;;;14.10;99.90;;;;;;5084105;28;20248;-80
2022/07/27 03:31:14;;;;;;;8.02;2.30;;;14.10;99.90;;;;;;5085384;28;20223;-81
2022/07/27 03:33:41;;;;;;;3.50;1.92;;;14.10;99.90;;;;;;5074930;28;20679;-81
2022/07/27 03:36:09;;;;;;;5.65;2.25;;;14.00;99.90;;;;;;5081336;28;20317;-79
2022/07/27 03:38:36;;;;;;;5.55;2.60;;;14.10;99.90;;;;;;5075362;28;20309;-78
2022/07/27 03:41:03;;;;;;;5.05;2.22;;;14.00;99.90;;;;;;5081938;28;20302;-79
2022/07/27 03:43:30;;;;;;;6.90;2.58;;;14.10;99.90;;;;;;5074765;28;20213;-80
2022/07/27 03:45:57;;;;;;;6.50;2.30;;;14.00;99.90;;;;;;5079130;28;20246;-79
2022/07/27 03:48:26;;;;;;;5.03;2.13;;;14.10;99.90;;;;;;5076033;28;20237;-81
2022/07/27 03:50:52;;;;;;;6.18;2.40;;;14.10;99.90;;;;;;5085510;28;20268;-78
2022/07/27 03:53:21;;;;;;;6.63;1.95;;;14.10;99.90;;;;;;5081344;28;20766;-78
2022/07/27 03:55:48;;;;;;;4.03;2.08;;;14.10;99.90;;;;;;5085051;28;20215;-78
2022/07/27 03:58:15;;;;;;;8.48;3.17;;;14.10;99.90;;;;;;5081352;28;20222;-78
2022/07/27 04:00:43;;;;;;;6.03;2.28;;;14.10;99.90;;;;;;5083103;28;20202;-81
2022/07/27 04:03:10;;;;;;;8.48;2.17;;;14.10;99.90;;;;;;5081123;28;20206;-79
2022/07/27 04:05:36;;;;;;;6.80;2.25;;;14.10;99.90;;;;;;5075006;28;20298;-80
2022/07/27 04:08:04;;;;;;;6.32;2.53;;;14.10;99.90;;;;;;5081279;28;20210;-81
2022/07/27 04:10:32;;;;;;;3.60;2.38;;;14.10;99.90;;;;;;5081552;28;20210;-80
2022/07/27 04:12:59;;;;;;;6.45;2.25;;;14.20;99.90;;;;;;5085982;28;20250;-79
2022/07/27 04:15:26;;;;;;;7.43;2.30;;;14.10;99.90;;;;;;5086840;28;20302;-79
2022/07/27 04:17:53;;;;;;;3.55;1.95;;;14.20;99.90;;;;;;5093562;28;20279;-80
2022/07/27 04:20:20;;;;;;;8.30;2.53;;;14.20;99.90;;;;;;5091955;28;20199;-81
2022/07/27 04:22:48;;;;;;;2.50;2.17;;;14.20;99.90;;;;;;5092329;28;20233;-81
2022/07/27 04:25:15;;;;;;;5.15;2.85;;;14.20;99.90;;;;;;5094127;28;20225;-79
2022/07/27 04:27:44;;;;;;;6.95;2.80;;;14.30;99.90;;;;;;5085648;28;20214;-79
2022/07/27 04:30:12;;;;;;;8.77;2.40;;;14.30;99.90;;;;;;5075098;28;20265;-80
2022/07/27 04:32:39;;;;;;;5.75;2.50;;;14.40;99.90;;;;;;5076381;28;20199;-79
2022/07/27 04:35:07;;;;;;;4.88;2.45;;;14.40;99.90;;;;;;5081282;28;20253;-82
2022/07/27 04:37:36;;;;;;;8.00;2.50;;;14.70;99.90;;;;;;5089940;28;20215;-80
2022/07/27 04:40:13;;;;;;;5.57;2.20;;;15.30;99.90;;;;;;5089672;28;20203;-80
2022/07/27 04:42:41;;;;;;;4.32;2.50;;;16.10;99.90;;;;;;5087913;28;20196;-81
2022/07/27 04:45:10;;;;;;;4.10;1.92;;;16.90;99.90;;;;;;5089837;28;20245;-81
2022/07/27 04:47:37;;;;;;;4.77;2.20;;;17.60;99.90;;;;;;5090205;28;20209;-81
2022/07/27 04:50:05;;;;;;;4.70;2.97;;;18.10;99.90;;;;;;5082921;28;20521;-81
2022/07/27 04:52:32;;;;;;;7.40;2.70;;;18.50;99.90;;;;;;5082104;28;20494;-81
2022/07/27 04:54:59;;;;;;;8.33;2.07;;;19.30;99.90;;;;;;5080683;28;20540;-80
2022/07/27 04:57:25;;;;;;;3.00;2.00;;;19.80;99.90;;;;;;5087468;28;20512;-80
2022/07/27 04:59:52;;;;;;;4.50;2.40;;;20.40;99.90;;;;;;5088582;28;20507;-81
2022/07/27 05:02:21;;;;;;;6.00;2.47;;;21.10;99.90;;;;;;5090107;28;20441;-79
2022/07/27 05:04:48;;;;;;;9.47;2.20;;;21.50;99.90;;;;;;5077102;28;20473;-78
2022/07/27 05:07:14;;;;;;;3.67;1.70;;;21.50;98.70;;;;;;5090877;28;20560;-80
2022/07/27 05:09:42;;;;;;;3.60;2.20;;;21.70;98.00;;;;;;5083737;28;20447;-80
2022/07/27 05:12:09;;;;;;;6.73;2.07;;;22.10;97.30;;;;;;5093581;28;20444;-81
2022/07/27 05:14:35;;;;;;;5.30;2.30;;;22.30;96.60;;;;;;5081679;28;20492;-82
2022/07/27 05:17:04;;;;;;;2.40;1.43;;;22.80;95.30;;;;;;5080868;28;20544;-81
2022/07/27 05:19:33;;;;;;;4.00;1.83;;;23.40;93.80;;;;;;5083434;28;20485;-82
2022/07/27 05:22:00;;;;;;;3.00;1.67;;;23.90;92.60;;;;;;5081471;28;20899;-80
2022/07/27 05:24:27;;;;;;;4.07;1.70;;;24.10;91.90;;;;;;5082387;28;20471;-81
2022/07/27 05:26:54;;;;;;;8.63;2.30;;;24.10;91.30;;;;;;5083654;28;20491;-80
2022/07/27 05:29:21;;;;;;;7.20;1.97;;;23.60;91.20;;;;;;5081591;28;20472;-78
2022/07/27 05:31:48;;;;;;;7.17;2.00;;;22.90;92.10;;;;;;5079667;28;20542;-81
2022/07/27 05:34:15;;;;;;;7.57;2.30;;;22.80;92.50;;;;;;5084359;28;20539;-82
2022/07/27 05:36:43;;;;;;;5.40;2.10;;;22.90;92.60;;;;;;5083977;28;20513;-81
2022/07/27 05:39:10;;;;;;;4.43;1.77;;;23.30;92.20;;;;;;5088814;28;20595;-80
2022/07/27 05:41:37;;;;;;;3.30;1.33;;;23.90;91.10;;;;;;5075602;28;20441;-80
2022/07/27 05:44:04;;;;;;;5.23;2.83;;;24.50;90.40;;;;;;5089374;28;20439;-78
2022/07/27 05:46:32;;;;;;;7.10;2.90;;;25.00;89.20;;;;;;5091688;28;20475;-81
2022/07/27 05:48:58;;;;;;;4.27;2.00;;;25.30;86.50;;;;;;5094983;28;20456;-78
2022/07/27 05:51:25;;;;;;;6.50;1.93;;;24.90;85.80;;;;;;5098271;28;20520;-80
2022/07/27 05:53:53;;;;;;;3.73;1.33;;;24.70;87.10;;;;;;5095436;28;20449;-81
2022/07/27 05:56:20;;;;;;;2.30;1.43;;;24.40;87.10;;;;;;5090121;28;20881;-81
2022/07/27 05:58:47;;;;;;;8.33;2.33;;;24.60;87.00;;;;;;5085813;28;20552;-82
2022/07/27 06:01:14;;;;;;;7.80;2.03;;;24.90;86.90;;;;;;5087451;28;20524;-80
2022/07/27 06:03:41;;;;;;;4.00;1.60;;;25.40;85.20;;;;;;5083747;28;20947;-79
2022/07/27 06:08:54;;;;;;;6.33;1.57;;;26.60;80.80;;;;;;5081304;28;20416;-81
2022/07/27 06:11:20;;;;;;;4.37;1.37;;;26.80;79.10;;;;;;5090280;28;20441;-81
2022/07/27 06:13:49;;;;;;;6.40;1.80;;;27.20;77.80;;;;;;5089398;28;20477;-79
2022/07/27 06:16:16;;;;;;;6.53;1.70;;;27.10;77.90;;;;;;5080984;28;20461;-82
2022/07/27 06:18:43;;;;;;;4.40;1.60;;;27.30;77.70;;;;;;5083599;28;20588;-80
2022/07/27 06:21:10;;;;;;;4.40;1.73;;;27.40;76.10;;;;;;5084188;28;20472;-81
2022/07/27 06:23:36;;;;;;;3.00;1.27;;;27.90;75.70;;;;;;5074601;28;20773;-81
2022/07/27 06:26:05;;;;;;;4.97;1.50;;;27.90;74.50;;;;;;5080963;28;20467;-80
2022/07/27 06:28:31;;;;;;;4.97;1.63;;;28.10;73.70;;;;;;5084952;28;20514;-80
2022/07/27 06:30:58;;;;;;;6.07;2.23;;;28.10;73.90;;;;;;5083973;28;20463;-80
2022/07/27 06:33:27;;;;;;;9.20;1.77;;;28.20;73.00;;;;;;5083610;28;20459;-79
2022/07/27 06:35:55;;;;;;;2.50;1.40;;;28.50;72.20;;;;;;5082515;28;20856;-80
2022/07/27 06:38:23;;;;;;;3.80;1.40;;;28.60;71.10;;;;;;5085627;28;20571;-81
2022/07/27 06:40:52;;;;;;;3.30;1.30;;;28.90;70.50;;;;;;5089334;28;20453;-79
2022/07/27 06:43:21;;;;;;;6.30;1.37;;;29.10;69.40;;;;;;5087606;28;20442;-80
2022/07/27 06:45:48;;;;;;;7.30;2.57;;;29.50;68.80;;;;;;5086113;28;20484;-82
2022/07/27 06:48:15;;;;;;;4.53;1.53;;;29.90;66.40;;;;;;5082607;28;20437;-80
2022/07/27 06:50:42;;;;;;;7.47;1.40;;;29.70;65.90;;;;;;5072610;28;20513;-81
2022/07/27 06:53:09;;;;;;;5.23;1.37;;;29.10;65.30;;;;;;5084281;28;20449;-80
2022/07/27 06:55:36;;;;;;;6.90;1.20;;;28.90;66.20;;;;;;5078564;28;20476;-81
2022/07/27 06:58:03;;;;;;;7.53;1.60;;;28.40;65.20;;;;;;5080036;28;20484;-83
2022/07/27 07:00:31;;;;;;;4.67;1.50;;;28.60;66.80;;;;;;5079222;28;20525;-83
2022/07/27 07:02:59;;;;;;;6.30;1.47;;;28.40;66.40;;;;;;5081380;28;20512;-81
2022/07/27 07:05:27;;;;;;;4.30;1.40;;;28.50;66.60;;;;;;5082257;28;20470;-83
2022/07/27 07:07:54;;;;;;;4.03;1.20;;;29.00;65.80;;;;;;5075161;28;20449;-81
2022/07/27 07:10:21;;;;;;;5.10;1.27;;;29.40;64.20;;;;;;5078717;28;20441;-79
2022/07/27 07:12:50;;;;;;;5.07;0.93;;;28.60;63.50;;;;;;5086423;28;20865;-81
2022/07/27 07:15:17;;;;;;;5.33;1.63;;;27.90;65.30;;;;;;5085388;28;20469;-81
2022/07/27 07:17:45;;;;;;;4.60;1.43;;;28.00;67.20;;;;;;5088066;28;20473;-82
2022/07/27 07:20:13;;;;;;;5.60;1.37;;;28.10;67.00;;;;;;5087542;28;20488;-81
2022/07/27 07:22:39;;;;;;;6.37;1.47;;;28.10;66.50;;;;;;5081062;28;20445;-80
2022/07/27 07:25:06;;;;;;;6.57;2.93;;;28.30;65.70;;;;;;5087242;28;20504;-83
2022/07/27 07:27:33;;;;;;;4.40;1.30;;;27.80;66.50;;;;;;5082781;28;20468;-79
2022/07/27 07:30:01;;;;;;;3.10;1.20;;;27.10;68.00;;;;;;5093675;28;20433;-81
2022/07/27 07:32:29;;;;;;;8.87;2.00;;;26.00;70.90;;;;;;5098626;28;20436;-78
2022/07/27 07:34:57;;;;;;;5.30;1.43;;;24.70;74.50;;;;;;5097112;28;20484;-78
2022/07/27 07:37:24;;;;;;;7.30;2.10;;;23.30;78.40;;;;;;5095370;28;20451;-79
2022/07/27 07:39:50;;;;;;;4.10;1.47;;;22.40;82.20;;;;;;5093035;28;20549;-82
2022/07/27 07:42:18;;;;;;;5.43;1.90;;;21.90;85.60;;;;;;5075642;28;20915;-80
2022/07/27 07:44:45;;;;;;;5.80;1.37;;;21.40;88.80;;;;;;5083862;28;20495;-82
2022/07/27 07:47:12;;;;;;;3.30;1.30;;;21.20;90.30;;;;;;5088712;28;20512;-82
2022/07/27 07:49:39;;;;;;;5.43;1.83;;;21.10;90.40;;;;;;5082451;28;20971;-81
2022/07/27 07:52:08;;;;;;;6.07;1.60;;;21.10;89.90;;;;;;5084178;28;20440;-80
2022/07/27 07:54:35;;;;;;;6.50;1.70;;;21.00;89.80;;;;;;5071462;28;20551;-81
2022/07/27 07:57:02;;;;;;;4.90;1.60;;;21.00;90.00;;;;;;5083573;28;20454;-81
2022/07/27 07:59:28;;;;;;;2.80;1.20;;;21.10;89.90;;;;;;5084580;28;20499;-79
2022/07/27 08:01:55;;;;;;;3.97;1.40;;;21.30;89.00;;;;;;5078130;28;20482;-81
2022/07/27 08:04:22;;;;;;;1.77;1.10;;;21.50;88.50;;;;;;5077704;28;20508;-80
2022/07/27 08:06:49;;;;;;;4.60;1.53;;;21.60;88.20;;;;;;5083834;28;20487;-80
2022/07/27 08:09:20;;;;;;;4.00;1.30;;;21.70;86.50;;;;;;5082304;28;20479;-81
2022/07/27 08:11:47;;;;;;;6.93;1.80;;;22.00;86.80;;;;;;5084829;28;20434;-83
2022/07/27 08:14:13;;;;;;;4.63;2.00;;;23.00;86.40;;;;;;5087426;28;20507;-80
2022/07/27 08:16:40;;;;;;;9.33;1.97;;;24.40;82.50;;;;;;5084848;28;20524;-79
2022/07/27 08:19:08;;;;;;;8.00;1.77;;;25.80;78.60;;;;;;5086081;28;20509;-79
2022/07/27 08:21:34;;;;;;;5.63;2.33;;;27.00;75.30;;;;;;5087525;28;21012;-79
2022/07/27 08:24:01;;;;;;;2.50;1.23;;;28.00;71.90;;;;;;5092160;28;20441;-81
2022/07/27 08:26:32;;;;;;;5.57;1.47;;;28.70;69.90;;;;;;5087957;28;20866;-81
2022/07/27 08:28:59;;;;;;;6.57;2.00;;;28.90;67.50;;;;;;5082730;28;20512;-80
2022/07/27 08:31:26;;;;;;;5.87;1.27;;;28.60;67.80;;;;;;5085369;28;20501;-81
2022/07/27 08:33:53;;;;;;;6.57;1.60;;;29.20;67.20;;;;;;5087725;28;20452;-80
2022/07/27 08:36:20;;;;;;;5.03;1.53;;;28.50;65.90;;;;;;5085528;28;20464;-82
2022/07/27 08:38:47;;;;;;;8.63;1.70;;;28.70;66.40;;;;;;5085936;28;20600;-83
2022/07/27 08:41:15;;;;;;;5.77;2.07;;;29.40;65.60;;;;;;5085092;28;21215;-82
2022/07/27 08:43:48;;;;;;;6.67;1.37;;;29.10;65.50;;;;;;5087538;28;20520;-82
2022/07/27 08:46:18;;;;;;;3.70;1.20;;;28.50;65.00;;;;;;5085813;28;20504;-83
2022/07/27 08:48:45;;;;;;;5.07;2.00;;;27.20;68.60;;;;;;5082968;28;20480;-82
2022/07/27 08:51:12;;;;;;;3.00;1.17;;;27.70;68.00;;;;;;5086442;28;20508;-83
2022/07/27 08:53:39;;;;;;;4.93;1.47;;;28.20;66.30;;;;;;5088287;28;20467;-81
2022/07/27 08:56:08;;;;;;;4.33;1.20;;;27.80;66.10;;;;;;5091127;28;20524;-81
2022/07/27 08:58:38;;;;;;;3.63;1.30;;;28.10;66.70;;;;;;5070206;28;20519;-81
2022/07/27 09:01:06;;;;;;;3.80;1.37;;;28.60;66.30;;;;;;5081787;28;20513;-82
2022/07/27 09:03:33;;;;;;;3.73;1.43;;;28.50;65.70;;;;;;5087888;28;20581;-82
2022/07/27 09:06:00;;;;;;;6.40;2.40;;;27.70;66.00;;;;;;5087437;28;20505;-80
2022/07/27 09:08:30;;;;;;;4.17;2.33;;;26.70;67.30;;;;;;5092727;28;20477;-80
2022/07/27 09:11:02;;;;;;;9.80;1.83;;;25.80;69.80;;;;;;5090624;28;20497;-81
2022/07/27 09:13:31;;;;;;;6.10;1.60;;;25.30;72.10;;;;;;5090496;28;20437;-80
2022/07/27 09:16:00;;;;;;;3.67;1.70;;;24.50;75.00;;;;;;5087199;28;20585;-78
2022/07/27 09:18:30;;;;;;;5.70;1.73;;;23.60;78.20;;;;;;5089719;28;20447;-80
2022/07/27 09:21:21;;;;;;;8.97;1.50;;;22.50;81.30;;;;;;5085471;28;20441;-79
2022/07/27 09:23:50;;;;;;;3.73;1.43;;;22.10;83.30;;;;;;5087166;28;20492;-81
2022/07/27 09:26:19;;;;;;;6.53;2.10;;;21.70;84.30;;;;;;5090876;28;20809;-81
2022/07/27 09:28:47;;;;;;;5.17;1.57;;;21.70;84.00;;;;;;5089547;28;20503;-80
2022/07/27 09:31:16;;;;;;;6.20;2.40;;;21.40;83.70;;;;;;5090990;28;20554;-80
2022/07/27 09:33:46;;;;;;;14.63;3.77;;;21.90;83.50;;;;;;5081871;28;20471;-79
2022/07/27 09:36:13;;;;;;;4.27;1.70;;;22.30;82.20;;;;;;5088533;28;20528;-83
2022/07/27 09:38:51;;;;;;;6.73;2.73;;;22.50;81.40;;;;;;5090034;28;20536;-80
2022/07/27 09:41:18;;;;;;;8.40;2.93;;;22.90;80.80;;;;;;5089777;28;20532;-82
2022/07/27 09:43:47;;;;;;;5.60;1.43;;;24.00;78.30;;;;;;5090043;28;21034;-81
2022/07/27 09:46:13;;;;;;;4.57;1.83;;;25.20;75.10;;;;;;5084047;28;20480;-82
2022/07/27 09:48:41;;;;;;;8.70;3.17;;;26.10;71.40;;;;;;5085470;28;20544;-83
2022/07/27 09:51:11;;;;;;;3.43;1.37;;;26.70;69.80;;;;;;5084599;28;20522;-83
2022/07/27 09:53:38;;;;;;;9.77;1.47;;;27.20;68.20;;;;;;5072721;28;20440;-82
2022/07/27 09:56:07;;;;;;;7.70;2.13;;;27.50;67.50;;;;;;5083310;28;20460;-82
2022/07/27 09:58:41;;;;;;;2.90;1.40;;;27.70;66.90;;;;;;5083621;28;20445;-83
2022/07/27 10:01:08;;;;;;;5.53;1.80;;;28.10;65.70;;;;;;5094246;28;20516;-78
2022/07/27 10:03:35;;;;;;;3.90;1.83;;;28.30;64.60;;;;;;5094254;28;20600;-77
2022/07/27 10:06:03;;;;;;;6.13;2.13;;;28.20;64.40;;;;;;5093936;28;20493;-80
2022/07/27 10:08:32;;;;;;;5.40;1.20;;;27.60;64.50;;;;;;5092047;28;20453;-81
2022/07/27 10:10:59;;;;;;;2.73;1.23;;;27.20;64.40;;;;;;5087879;28;20492;-83
2022/07/27 10:13:26;;;;;;;5.60;2.07;;;27.30;64.40;;;;;;5083430;28;21043;-80
2022/07/27 10:15:54;;;;;;;4.03;1.37;;;27.30;64.70;;;;;;5083439;28;20465;-82
2022/07/27 10:18:30;;;;;;;4.37;1.50;;;27.50;64.20;;;;;;5083185;28;20474;-82
2022/07/27 10:21:03;;;;;;;4.90;1.70;;;28.00;65.00;;;;;;5077763;28;20480;-83
2022/07/27 10:23:33;;;;;;;2.87;1.20;;;28.00;62.80;;;;;;5082914;28;20541;-82
2022/07/27 10:26:16;;;;;;;3.47;1.53;;;27.40;65.00;;;;;;5088319;28;20784;-82
2022/07/27 10:28:52;;;;;;;4.60;1.83;;;27.70;63.70;;;;;;5078695;28;20503;-81
2022/07/27 10:31:21;;;;;;;3.80;1.47;;;26.60;65.50;;;;;;5083586;28;20450;-83
2022/07/27 10:33:49;;;;;;;7.00;1.43;;;25.80;68.00;;;;;;5086819;28;20437;-81
2022/07/27 10:36:18;;;;;;;7.73;1.90;;;25.20;69.80;;;;;;5090238;28;20444;-79
2022/07/27 10:38:48;;;;;;;10.63;2.67;;;24.70;70.10;;;;;;5088526;28;20472;-80
2022/07/27 10:41:38;;;;;;;4.40;1.77;;;24.10;71.40;;;;;;5091417;28;20486;-83
2022/07/27 10:44:28;;;;;;;3.60;1.80;;;23.60;72.80;;;;;;5090348;28;20520;-80
2022/07/27 10:46:57;;;;;;;4.87;3.27;;;23.20;73.10;;;;;;5076881;28;20449;-81
2022/07/27 10:49:25;;;;;;;2.20;1.10;;;22.90;74.10;;;;;;5091311;28;20504;-78
2022/07/27 10:51:53;;;;;;;4.30;2.30;;;22.70;74.70;;;;;;5087292;28;20476;-80
2022/07/27 10:54:22;;;;;;;3.67;2.40;;;23.10;76.00;;;;;;5093215;28;20457;-80
2022/07/27 10:56:51;;;;;;;9.10;1.53;;;23.40;72.40;;;;;;5095352;28;20444;-79
2022/07/27 10:59:49;;;;;;;3.93;2.00;;;23.70;72.40;;;;;;5099197;28;20436;-79
2022/07/27 11:02:18;;;;;;;4.13;1.47;;;24.20;70.50;;;;;;5085603;28;20467;-79
2022/07/27 11:04:47;;;;;;;4.43;1.57;;;24.50;69.10;;;;;;5099366;28;20463;-80
2022/07/27 11:07:17;;;;;;;5.80;1.40;;;24.50;68.70;;;;;;5086065;28;20467;-79
2022/07/27 11:09:47;;;;;;;4.10;1.70;;;24.30;69.00;;;;;;5093946;28;20460;-78
2022/07/27 11:12:15;;;;;;;4.00;1.83;;;23.90;70.30;;;;;;5097947;28;20462;-79
2022/07/27 11:14:46;;;;;;;4.80;2.00;;;23.60;71.30;;;;;;5098196;28;20485;-78
2022/07/27 11:17:14;;;;;;;6.60;1.47;;;23.30;72.60;;;;;;5097903;28;20504;-78
2022/07/27 11:19:41;;;;;;;2.90;1.30;;;23.10;72.50;;;;;;5095921;28;20503;-78
2022/07/27 11:22:08;;;;;;;3.63;1.93;;;22.90;72.80;;;;;;5095391;28;20524;-80
2022/07/27 11:24:35;;;;;;;4.17;1.43;;;22.90;72.10;;;;;;5095790;28;20503;-82
2022/07/27 11:27:04;;;;;;;5.70;1.60;;;22.90;73.60;;;;;;5093768;28;20448;-81
2022/07/27 11:29:35;;;;;;;7.70;2.13;;;22.90;74.00;;;;;;5089070;28;20455;-81
2022/07/27 11:32:03;;;;;;;3.03;1.63;;;22.90;75.10;;;;;;5088782;28;20492;-82
2022/07/27 11:34:32;;;;;;;8.60;1.90;;;22.90;77.50;;;;;;5095560;28;20459;-79
2022/07/27 11:37:01;;;;;;;3.23;1.50;;;22.80;78.50;;;;;;5087591;28;20539;-81
2022/07/27 11:39:31;;;;;;;4.27;1.67;;;22.70;79.10;;;;;;5096644;28;20478;-78
2022/07/27 11:42:00;;;;;;;4.07;1.53;;;22.90;78.70;;;;;;5085655;28;20456;-78
2022/07/27 11:44:29;;;;;;;6.67;1.33;;;22.80;79.00;;;;;;5091850;28;20528;-80
2022/07/27 11:46:57;;;;;;;8.60;2.40;;;22.80;78.70;;;;;;5090331;28;20442;-82
2022/07/27 11:49:27;;;;;;;6.20;1.67;;;22.90;78.20;;;;;;5091182;28;20525;-80
2022/07/27 11:51:56;;;;;;;6.10;1.67;;;23.10;78.90;;;;;;5088809;28;20520;-81
2022/07/27 11:54:24;;;;;;;3.00;1.73;;;22.90;77.10;;;;;;5089903;28;20495;-80
2022/07/27 11:56:53;;;;;;;5.23;1.83;;;22.80;77.00;;;;;;5084911;28;20438;-80
2022/07/27 11:59:21;;;;;;;5.53;1.77;;;22.60;76.30;;;;;;5087443;28;20483;-81
2022/07/27 12:01:51;;;;;;;3.30;2.43;;;22.40;77.10;;;;;;5087689;28;20450;-81
2022/07/27 12:04:24;;;;;;;4.93;1.33;;;22.20;78.80;;;;;;5089920;28;20506;-80
2022/07/27 12:07:00;;;;;;;2.53;1.33;;;22.00;81.10;;;;;;5090728;28;20527;-79
2022/07/27 12:09:29;;;;;;;4.50;1.80;;;22.10;82.30;;;;;;5083256;28;20468;-80
2022/07/27 12:11:58;;;;;;;4.43;1.53;;;22.30;82.20;;;;;;5086529;28;20505;-80
2022/07/27 12:14:35;;;;;;;3.03;1.40;;;22.40;81.60;;;;;;5087420;28;20465;-82
2022/07/27 12:17:25;;;;;;;4.47;1.40;;;22.60;81.60;;;;;;5084347;28;20441;-82
2022/07/27 12:19:58;;;;;;;4.07;1.70;;;22.70;81.10;;;;;;5076610;28;20552;-80
2022/07/27 12:22:27;;;;;;;9.43;2.10;;;22.70;81.40;;;;;;5091215;28;20463;-82
2022/07/27 12:24:54;;;;;;;3.13;1.40;;;22.60;81.40;;;;;;5075817;28;20493;-78
2022/07/27 12:27:21;;;;;;;2.93;1.33;;;22.70;81.50;;;;;;5093638;28;20460;-79
2022/07/27 12:30:01;;;;;;;4.83;1.87;;;22.70;80.00;;;;;;5093872;28;20433;-80
2022/07/27 12:32:31;;;;;;;5.73;1.50;;;22.70;79.90;;;;;;5090548;28;20441;-83
2022/07/27 12:34:59;;;;;;;6.57;1.60;;;22.80;80.30;;;;;;5086637;28;20556;-82
2022/07/27 12:37:31;;;;;;;2.70;1.20;;;22.90;81.00;;;;;;5085218;28;20479;-82
2022/07/27 12:39:57;;;;;;;3.70;1.40;;;23.00;80.70;;;;;;5084204;28;20527;-82
2022/07/27 12:42:35;;;;;;;7.57;1.80;;;23.10;80.90;;;;;;5085950;28;20445;-81
2022/07/27 12:45:17;;;;;;;4.00;2.10;;;23.10;79.80;;;;;;5092074;28;20484;-78
2022/07/27 12:47:45;;;;;;;4.20;1.07;;;22.80;79.40;;;;;;5086670;28;20840;-80
2022/07/27 12:50:14;;;;;;;3.80;1.47;;;22.60;78.60;;;;;;5101951;28;20431;-80
2022/07/27 12:52:44;;;;;;;2.73;1.23;;;22.40;78.40;;;;;;5094270;28;20444;-78
2022/07/27 12:55:11;;;;;;;3.33;1.70;;;22.20;78.00;;;;;;5096379;28;20487;-79
2022/07/27 12:57:38;;;;;;;5.43;2.30;;;22.10;77.00;;;;;;5095749;28;20475;-79